createdAt,value
2019-04-27T00:02:06.605Z,10.40
2019-04-27T00:05:48.489Z,10.40
2019-04-27T00:08:57.165Z,10.40
2019-04-27T00:12:05.211Z,10.40
2019-04-27T00:15:09.436Z,10.40
2019-04-27T00:18:32.073Z,10.50
2019-04-27T00:21:40.772Z,10.40
2019-04-27T00:25:23.008Z,10.20
2019-04-27T00:28:29.610Z,10.00
2019-04-27T00:31:34.710Z,9.90
2019-04-27T00:34:39.654Z,9.90
2019-04-27T00:38:03.185Z,9.90
2019-04-27T00:41:09.287Z,9.80
2019-04-27T00:44:13.959Z,9.80
2019-04-27T00:47:18.339Z,9.70
2019-04-27T00:50:24.346Z,9.60
2019-04-27T00:53:28.800Z,9.60
2019-04-27T00:56:55.794Z,9.50
2019-04-27T01:00:07.480Z,9.60
2019-04-27T01:03:17.058Z,9.60
2019-04-27T01:06:23.706Z,9.60
2019-04-27T01:09:29.138Z,9.50
2019-04-27T01:12:33.675Z,9.50
2019-04-27T01:15:38.566Z,9.60
2019-04-27T01:18:42.759Z,9.50
2019-04-27T01:21:45.610Z,9.50
2019-04-27T01:24:50.479Z,9.50
2019-04-27T01:28:03.814Z,9.60
2019-04-27T01:31:12.950Z,9.50
2019-04-27T01:34:15.803Z,9.50
2019-04-27T01:37:21.167Z,9.60
2019-04-27T01:40:24.410Z,9.50
2019-04-27T01:43:30.260Z,9.50
2019-04-27T01:46:34.294Z,9.50
2019-04-27T01:49:39.697Z,9.50
2019-04-27T01:52:43.901Z,9.40
2019-04-27T01:55:49.734Z,9.40
2019-04-27T01:58:52.607Z,9.50
2019-04-27T02:02:16.435Z,9.50
2019-04-27T02:05:46.086Z,9.50
2019-04-27T02:08:51.875Z,9.40
2019-04-27T02:11:55.051Z,9.40
2019-04-27T02:14:59.003Z,9.50
2019-04-27T02:18:02.725Z,9.50
2019-04-27T02:21:09.096Z,9.50
2019-04-27T02:24:19.467Z,9.40
2019-04-27T02:27:28.661Z,9.50
2019-04-27T02:30:49.895Z,9.50
2019-04-27T02:34:02.866Z,9.40
2019-04-27T02:37:10.145Z,9.40
2019-04-27T02:40:49.582Z,9.50
2019-04-27T02:44:11.055Z,9.50
2019-04-27T02:47:17.084Z,9.40
2019-04-27T02:50:21.103Z,9.40
2019-04-27T02:53:44.694Z,9.50
2019-04-27T02:56:50.076Z,9.50
2019-04-27T02:59:52.466Z,9.50
2019-04-27T03:03:02.276Z,9.40
2019-04-27T03:06:04.168Z,9.50
2019-04-27T03:09:10.460Z,9.50
2019-04-27T03:12:16.435Z,9.50
2019-04-27T03:15:52.564Z,9.50
2019-04-27T03:19:18.067Z,9.50
2019-04-27T03:22:24.627Z,9.50
2019-04-27T03:25:35.455Z,9.50
2019-04-27T03:28:40.155Z,9.50
2019-04-27T03:31:47.554Z,9.50
2019-04-27T03:34:52.306Z,9.50
2019-04-27T03:37:57.015Z,9.50
2019-04-27T03:41:03.902Z,9.50
2019-04-27T03:44:09.375Z,9.50
2019-04-27T03:47:14.195Z,9.60
2019-04-27T03:50:22.495Z,9.50
2019-04-27T03:54:01.016Z,9.50
2019-04-27T03:57:24.664Z,9.50
2019-04-27T04:00:29.785Z,9.50
2019-04-27T04:03:35.037Z,9.50
2019-04-27T04:06:39.937Z,9.50
2019-04-27T04:09:43.263Z,9.40
2019-04-27T04:13:01.715Z,9.40
2019-04-27T04:16:29.534Z,9.30
2019-04-27T04:19:47.977Z,9.30
2019-04-27T04:22:41.687Z,9.30
2019-04-27T04:25:45.700Z,9.30
2019-04-27T04:28:50.003Z,9.30
2019-04-27T04:31:54.028Z,9.30
2019-04-27T04:35:21.293Z,9.30
2019-04-27T04:38:24.139Z,9.30
2019-04-27T04:41:43.529Z,9.30
2019-04-27T04:45:10.584Z,9.30
2019-04-27T04:48:17.073Z,9.30
2019-04-27T04:51:22.867Z,9.30
2019-04-27T04:54:26.845Z,9.40
2019-04-27T04:57:31.635Z,9.20
2019-04-27T05:00:35.529Z,9.30
2019-04-27T05:03:39.466Z,9.30
2019-04-27T05:06:43.299Z,9.20
2019-04-27T05:09:46.341Z,9.20
2019-04-27T05:12:50.438Z,9.20
2019-04-27T05:15:56.163Z,9.30
2019-04-27T05:19:00.155Z,9.10
2019-04-27T05:22:03.123Z,9.20
2019-04-27T05:25:06.030Z,9.10
2019-04-27T05:28:09.721Z,9.10
2019-04-27T05:31:14.851Z,9.20
2019-04-27T05:34:29.675Z,9.20
2019-04-27T05:37:35.198Z,9.20
2019-04-27T05:40:41.403Z,9.20
2019-04-27T05:44:07.554Z,9.20
2019-04-27T05:47:33.758Z,9.30
2019-04-27T05:50:43.493Z,9.30
2019-04-27T05:53:44.315Z,9.50
2019-04-27T05:56:49.223Z,9.50
2019-04-27T05:59:53.130Z,9.60
2019-04-27T06:02:56.094Z,9.70
2019-04-27T06:06:01.718Z,9.60
2019-04-27T06:09:50.119Z,9.60
2019-04-27T06:12:53.086Z,9.60
2019-04-27T06:15:57.082Z,9.70
2019-04-27T06:18:59.971Z,9.80
2019-04-27T06:22:03.159Z,9.80
2019-04-27T06:25:11.354Z,9.80
2019-04-27T06:28:13.871Z,9.80
2019-04-27T06:31:16.612Z,9.80
2019-04-27T06:34:21.322Z,9.90
2019-04-27T06:37:25.478Z,10.10
2019-04-27T06:40:30.739Z,10.20
2019-04-27T06:43:33.574Z,10.40
2019-04-27T06:46:38.565Z,10.70
2019-04-27T06:49:42.374Z,10.90
2019-04-27T06:52:47.054Z,11.00
2019-04-27T06:55:50.891Z,11.10
2019-04-27T06:58:57.442Z,11.10
2019-04-27T07:02:02.597Z,11.20
2019-04-27T07:05:05.646Z,11.60
2019-04-27T07:08:10.226Z,11.50
2019-04-27T07:11:14.453Z,11.40
2019-04-27T07:14:20.301Z,11.50
2019-04-27T07:17:28.830Z,11.40
2019-04-27T07:20:33.760Z,11.60
2019-04-27T07:23:38.907Z,11.90
2019-04-27T07:26:41.871Z,11.90
2019-04-27T07:29:45.738Z,11.80
2019-04-27T07:32:49.756Z,11.70
2019-04-27T07:35:54.589Z,11.70
2019-04-27T07:38:59.986Z,11.90
2019-04-27T07:42:04.251Z,11.80
2019-04-27T07:45:16.360Z,12.00
2019-04-27T07:48:20.307Z,12.10
2019-04-27T07:51:32.114Z,12.20
2019-04-27T07:54:34.202Z,12.20
2019-04-27T07:57:39.974Z,12.20
2019-04-27T08:00:44.591Z,12.20
2019-04-27T08:03:49.079Z,12.20
2019-04-27T08:06:51.959Z,12.20
2019-04-27T08:09:55.983Z,12.10
2019-04-27T08:13:01.803Z,12.00
2019-04-27T08:16:08.658Z,11.80
2019-04-27T08:19:12.630Z,11.90
2019-04-27T08:22:19.315Z,11.80
2019-04-27T08:25:24.438Z,12.10
2019-04-27T08:28:52.918Z,12.40
2019-04-27T08:31:59.396Z,12.50
2019-04-27T08:35:09.428Z,12.90
2019-04-27T08:38:12.282Z,13.20
2019-04-27T08:41:15.342Z,13.40
2019-04-27T08:44:19.538Z,13.40
2019-04-27T08:47:24.203Z,13.60
2019-04-27T08:50:28.850Z,13.70
2019-04-27T08:53:34.719Z,13.70
2019-04-27T08:56:39.613Z,14.00
2019-04-27T08:59:44.490Z,14.50
2019-04-27T09:02:50.291Z,14.20
2019-04-27T09:05:55.111Z,14.50
2019-04-27T09:09:09.492Z,14.80
2019-04-27T09:12:31.863Z,14.80
2019-04-27T09:15:43.735Z,15.70
2019-04-27T09:18:49.849Z,16.40
2019-04-27T09:22:12.412Z,16.60
2019-04-27T09:25:09.401Z,16.60
2019-04-27T09:28:12.287Z,16.40
2019-04-27T09:31:16.326Z,16.50
2019-04-27T09:34:21.033Z,16.90
2019-04-27T09:37:24.127Z,16.50
2019-04-27T09:40:27.150Z,16.20
2019-04-27T09:43:31.202Z,16.70
2019-04-27T09:46:34.328Z,16.90
2019-04-27T09:49:40.893Z,17.80
2019-04-27T09:52:45.975Z,17.90
2019-04-27T09:55:49.983Z,17.80
2019-04-27T09:58:57.045Z,17.80
2019-04-27T10:01:59.928Z,17.50
2019-04-27T10:05:06.261Z,17.80
2019-04-27T10:08:11.395Z,18.50
2019-04-27T10:11:16.279Z,19.50
2019-04-27T10:14:20.018Z,20.00
2019-04-27T10:17:22.866Z,19.80
2019-04-27T10:20:27.950Z,20.30
2019-04-27T10:23:30.966Z,21.00
2019-04-27T10:26:33.822Z,20.40
2019-04-27T10:29:40.032Z,20.30
2019-04-27T10:32:42.995Z,19.80
2019-04-27T10:35:47.350Z,19.00
2019-04-27T10:38:50.162Z,19.90
2019-04-27T10:41:56.337Z,19.40
2019-04-27T10:45:01.154Z,18.60
2019-04-27T10:48:05.310Z,18.40
2019-04-27T10:51:09.344Z,19.10
2019-04-27T10:54:12.971Z,19.30
2019-04-27T10:57:19.074Z,19.60
2019-04-27T11:00:31.038Z,21.10
2019-04-27T11:04:09.535Z,22.00
2019-04-27T11:07:18.160Z,21.20
2019-04-27T11:10:21.059Z,21.10
2019-04-27T11:13:26.940Z,20.50
2019-04-27T11:16:30.169Z,20.10
2019-04-27T11:19:33.127Z,20.10
2019-04-27T11:22:36.369Z,20.30
2019-04-27T11:25:39.258Z,20.40
2019-04-27T11:28:42.801Z,20.70
2019-04-27T11:31:46.591Z,20.50
2019-04-27T11:35:16.307Z,20.20
2019-04-27T11:38:21.454Z,20.80
2019-04-27T11:41:27.554Z,21.20
2019-04-27T11:44:30.435Z,21.00
2019-04-27T11:47:33.271Z,20.80
2019-04-27T11:50:39.038Z,21.30
2019-04-27T11:53:43.897Z,21.70
2019-04-27T11:56:50.338Z,22.10
2019-04-27T11:59:53.076Z,23.60
2019-04-27T12:02:58.815Z,23.80
2019-04-27T12:06:03.078Z,24.00
2019-04-27T12:09:08.187Z,23.70
2019-04-27T12:12:21.568Z,24.30
2019-04-27T12:15:26.298Z,23.70
2019-04-27T12:18:29.531Z,23.40
2019-04-27T12:21:36.131Z,23.60
2019-04-27T12:24:40.331Z,24.20
2019-04-27T12:28:20.751Z,23.20
2019-04-27T12:31:35.777Z,24.60
2019-04-27T12:34:40.466Z,26.80
2019-04-27T12:37:43.208Z,25.40
2019-04-27T12:40:46.585Z,25.10
2019-04-27T12:43:49.388Z,24.60
2019-04-27T12:46:52.154Z,23.90
2019-04-27T12:49:57.685Z,24.60
2019-04-27T12:53:03.711Z,24.90
2019-04-27T12:56:16.698Z,25.40
2019-04-27T12:59:39.047Z,28.00
2019-04-27T13:02:41.786Z,25.90
2019-04-27T13:05:44.518Z,25.30
2019-04-27T13:08:47.243Z,28.20
2019-04-27T13:11:50.139Z,28.90
2019-04-27T13:14:52.878Z,28.40
2019-04-27T13:17:57.329Z,27.60
2019-04-27T13:21:00.153Z,26.90
2019-04-27T13:24:06.320Z,28.10
2019-04-27T13:27:07.447Z,27.60
2019-04-27T13:30:10.813Z,24.20
2019-04-27T13:33:13.643Z,23.90
2019-04-27T13:36:16.772Z,24.90
2019-04-27T13:39:20.011Z,26.70
2019-04-27T13:42:22.776Z,28.30
2019-04-27T13:45:35.934Z,29.30
2019-04-27T13:48:56.798Z,29.20
2019-04-27T13:52:06.038Z,28.50
2019-04-27T13:55:09.067Z,25.80
2019-04-27T13:58:11.899Z,23.70
2019-04-27T14:01:14.732Z,23.30
2019-04-27T14:04:17.500Z,23.60
2019-04-27T14:07:20.274Z,23.50
2019-04-27T14:10:23.122Z,23.60
2019-04-27T14:13:25.934Z,23.20
2019-04-27T14:16:29.095Z,23.20
2019-04-27T14:19:32.070Z,23.50
2019-04-27T14:22:34.887Z,23.00
2019-04-27T14:25:39.109Z,21.50
2019-04-27T14:28:41.967Z,20.50
2019-04-27T14:31:44.719Z,19.80
2019-04-27T14:34:50.070Z,20.00
2019-04-27T14:37:52.035Z,19.40
2019-04-27T14:40:54.826Z,19.50
2019-04-27T14:44:06.126Z,19.50
2019-04-27T14:47:02.251Z,19.10
2019-04-27T14:50:05.243Z,18.80
2019-04-27T14:53:08.848Z,18.60
2019-04-27T14:56:12.782Z,18.30
2019-04-27T14:59:15.556Z,17.80
2019-04-27T15:02:18.607Z,17.60
2019-04-27T15:05:21.362Z,17.10
2019-04-27T15:08:25.562Z,17.10
2019-04-27T15:11:31.368Z,17.50
2019-04-27T15:14:33.054Z,17.20
2019-04-27T15:17:35.856Z,17.20
2019-04-27T15:20:43.942Z,17.30
2019-04-27T15:23:48.329Z,17.60
2019-04-27T15:26:54.332Z,17.50
2019-04-27T15:30:02.927Z,17.40
2019-04-27T15:33:23.378Z,17.30
2019-04-27T15:36:39.239Z,17.40
2019-04-27T15:40:09.991Z,17.60
2019-04-27T15:43:22.952Z,17.40
2019-04-27T15:46:29.479Z,17.40
2019-04-27T15:49:28.574Z,17.40
2019-04-27T15:52:33.168Z,17.60
2019-04-27T15:55:39.218Z,17.60
2019-04-27T15:58:40.543Z,17.50
2019-04-27T16:01:43.371Z,17.40
2019-04-27T16:04:49.777Z,17.20
2019-04-27T16:07:50.668Z,17.20
2019-04-27T16:10:53.406Z,17.20
2019-04-27T16:13:56.166Z,17.10
2019-04-27T16:16:58.957Z,17.10
2019-04-27T16:20:01.816Z,17.10
2019-04-27T16:23:04.652Z,17.10
2019-04-27T16:26:10.926Z,17.20
2019-04-27T16:29:12.007Z,17.20
2019-04-27T16:32:14.734Z,17.10
2019-04-27T16:35:19.402Z,17.00
2019-04-27T16:38:33.545Z,17.20
2019-04-27T16:41:37.363Z,17.20
2019-04-27T16:44:40.241Z,17.30
2019-04-27T16:47:44.254Z,17.50
2019-04-27T16:50:47.022Z,17.70
2019-04-27T16:53:49.854Z,17.70
2019-04-27T16:57:02.080Z,17.90
2019-04-27T17:00:01.052Z,18.20
2019-04-27T17:03:05.098Z,18.20
2019-04-27T17:06:09.423Z,18.20
2019-04-27T17:09:15.047Z,18.20
2019-04-27T17:12:23.716Z,18.10
2019-04-27T17:15:46.208Z,17.90
2019-04-27T17:19:04.244Z,17.70
2019-04-27T17:22:02.554Z,17.60
2019-04-27T17:25:05.699Z,17.40
2019-04-27T17:28:12.811Z,17.30
2019-04-27T17:31:21.119Z,17.20
2019-04-27T17:34:25.342Z,16.90
2019-04-27T17:37:29.958Z,16.60
2019-04-27T17:40:34.510Z,16.60
2019-04-27T17:43:37.425Z,16.40
2019-04-27T17:46:42.695Z,16.30
2019-04-27T17:49:44.866Z,16.30
2019-04-27T17:52:54.636Z,16.20
2019-04-27T17:55:54.995Z,16.20
2019-04-27T17:58:58.137Z,16.00
2019-04-27T18:02:04.554Z,15.70
2019-04-27T18:05:09.471Z,15.50
2019-04-27T18:08:13.548Z,15.30
2019-04-27T18:11:15.395Z,15.20
2019-04-27T18:14:19.214Z,15.10
2019-04-27T18:17:23.289Z,14.90
2019-04-27T18:20:26.066Z,15.00
2019-04-27T18:23:30.891Z,14.80
2019-04-27T18:26:49.366Z,14.70
2019-04-27T18:29:48.590Z,14.60
2019-04-27T18:32:53.511Z,14.60
2019-04-27T18:36:04.997Z,14.50
2019-04-27T18:39:05.542Z,14.50
2019-04-27T18:42:10.674Z,14.40
2019-04-27T18:45:15.706Z,14.30
2019-04-27T18:48:26.224Z,14.20
2019-04-27T18:52:04.149Z,14.00
2019-04-27T18:55:06.959Z,13.80
2019-04-27T18:58:09.931Z,13.70
2019-04-27T19:01:13.019Z,13.60
2019-04-27T19:04:18.878Z,13.50
2019-04-27T19:07:23.784Z,13.40
2019-04-27T19:10:28.162Z,13.30
2019-04-27T19:13:34.258Z,13.30
2019-04-27T19:16:38.544Z,13.20
2019-04-27T19:19:43.296Z,13.20
2019-04-27T19:22:48.975Z,13.20
2019-04-27T19:26:18.836Z,13.20
2019-04-27T19:29:25.943Z,13.20
2019-04-27T19:32:28.879Z,13.10
2019-04-27T19:35:31.875Z,13.10
2019-04-27T19:38:34.726Z,12.90
2019-04-27T19:41:38.983Z,12.90
2019-04-27T19:44:41.959Z,12.80
2019-04-27T19:47:44.883Z,12.80
2019-04-27T19:50:50.485Z,12.80
2019-04-27T19:53:55.370Z,12.90
2019-04-27T19:56:59.713Z,12.80
2019-04-27T20:00:06.570Z,12.80
2019-04-27T20:03:13.430Z,12.80
2019-04-27T20:06:18.818Z,12.70
2019-04-27T20:09:30.886Z,12.60
2019-04-27T20:12:35.430Z,12.50
2019-04-27T20:15:38.506Z,12.70
2019-04-27T20:18:43.275Z,12.80
2019-04-27T20:21:46.450Z,12.80
2019-04-27T20:24:51.198Z,12.70
2019-04-27T20:27:55.170Z,12.80
2019-04-27T20:31:00.062Z,12.90
2019-04-27T20:34:04.202Z,12.90
2019-04-27T20:37:09.011Z,12.90
2019-04-27T20:40:13.551Z,12.80
2019-04-27T20:43:16.392Z,12.70
2019-04-27T21:00:07.700Z,12.40
2019-04-27T21:03:37.495Z,12.20
2019-04-27T21:06:43.447Z,12.10
2019-04-27T21:09:46.319Z,12.10
2019-04-27T21:12:51.846Z,12.10
2019-04-27T21:15:55.886Z,12.00
2019-04-27T21:19:01.791Z,11.90
2019-04-27T21:22:06.380Z,11.70
2019-04-27T21:25:09.268Z,11.50
2019-04-27T21:28:18.099Z,11.50
2019-04-27T21:31:18.830Z,11.40
2019-04-27T21:34:21.723Z,11.30
2019-04-27T21:37:26.214Z,11.10
2019-04-27T21:40:30.694Z,11.00
2019-04-27T21:43:36.747Z,10.90
2019-04-27T21:46:41.189Z,10.80
2019-04-27T21:49:44.622Z,10.70
2019-04-27T21:52:55.555Z,10.70
2019-04-27T21:56:01.291Z,10.60
2019-04-27T21:59:05.681Z,10.50
2019-04-27T22:12:21.220Z,10.30
2019-04-27T22:33:58.519Z,9.80
2019-04-27T22:37:04.826Z,9.80
2019-04-27T22:37:10.967Z,10.20
2019-04-27T22:40:45.458Z,9.80
2019-04-27T22:44:11.948Z,9.70
2019-04-27T22:47:18.478Z,9.80
2019-04-27T22:50:22.894Z,9.80
2019-04-27T22:53:26.899Z,9.90
2019-04-27T22:56:32.249Z,9.90
2019-04-27T23:00:11.612Z,9.80
2019-04-27T23:07:51.806Z,9.80
2019-04-27T23:10:55.907Z,9.70
2019-04-27T23:14:00.912Z,9.70
2019-04-27T23:17:20.348Z,9.70
2019-04-27T23:20:24.546Z,9.60
2019-04-27T23:23:27.763Z,9.60
2019-04-27T23:26:32.481Z,9.60
2019-04-27T23:29:36.527Z,9.50
2019-04-27T23:32:43.595Z,9.50
2019-04-27T23:35:46.691Z,9.50
2019-04-27T23:38:51.480Z,9.40
2019-04-27T23:41:54.518Z,9.40
2019-04-27T23:44:57.447Z,9.30
2019-04-27T23:48:02.207Z,9.20
2019-04-27T23:51:24.462Z,9.20
2019-04-27T23:54:27.598Z,9.10
2019-04-27T23:57:31.822Z,9.00
